Time;durP1;ratioP1;P1;durP2;ratioP2;P2;SDS_P1;SDS_P2;PMS_P1;PMS_P2;Temp;Humidity;BMP_temperature;BMP_pressure;BME280_temperature;BME280_humidity;BME280_pressure;Samples;Min_cycle;Max_cycle;Signal;HPM_P1;HPM_P2
2022/03/29 00:01:09;;;;;;;0.57;0.57;;;;;;;13.97;48.46;99215.13;6277193;22;20000;-77
2022/03/29 00:03:34;;;;;;;0.10;0.10;;;;;;;13.92;48.34;99214.13;6304699;22;20010;-76
2022/03/29 00:06:00;;;;;;;0.10;0.10;;;;;;;13.87;48.45;99208.03;6304717;22;20011;-78
2022/03/29 00:08:25;;;;;;;0.00;0.00;;;;;;;13.88;48.71;99213.13;6277460;22;20352;-78
2022/03/29 00:10:51;;;;;;;0.10;0.10;;;;;;;13.83;48.86;99204.31;6277411;22;20351;-78
2022/03/29 00:13:16;;;;;;;0.00;0.00;;;;;;;13.81;48.83;99206.53;6277317;22;20013;-79
2022/03/29 00:22:25;;;;;;;0.00;0.00;;;;;;;13.67;48.88;99195.72;6304469;22;20459;-78
2022/03/29 00:24:51;;;;;;;0.10;0.10;;;;;;;13.63;49.11;99194.72;6304221;22;20015;-78
2022/03/29 00:27:17;;;;;;;0.00;0.00;;;;;;;13.61;49.14;99203.06;6304540;22;20010;-77
2022/03/29 00:29:42;;;;;;;0.00;0.00;;;;;;;13.59;49.33;99203.34;6277237;22;20007;-78
2022/03/29 00:32:08;;;;;;;0.10;0.10;;;;;;;13.59;49.69;99208.72;6277080;22;20013;-79
2022/03/29 00:34:36;;;;;;;0.32;0.32;;;;;;;13.52;49.65;99196.75;6277033;22;20015;-81
2022/03/29 00:37:03;;;;;;;0.00;0.00;;;;;;;13.50;49.71;99193.53;6277053;22;20007;-81
2022/03/29 00:39:28;;;;;;;0.10;0.10;;;;;;;13.45;49.87;99195.22;6277308;22;20518;-81
2022/03/29 00:41:54;;;;;;;0.00;0.00;;;;;;;13.43;49.68;99193.94;6277424;22;20003;-79
2022/03/29 00:44:28;;;;;;;0.10;0.10;;;;;;;13.40;50.02;99187.25;6276923;22;20436;-79
2022/03/29 00:46:55;;;;;;;0.03;0.03;;;;;;;13.37;50.08;99174.34;6277074;22;20003;-76
2022/03/29 00:49:20;;;;;;;0.10;0.10;;;;;;;13.36;50.21;99174.66;6303925;22;20018;-78
2022/03/29 00:51:46;;;;;;;0.00;0.00;;;;;;;13.35;49.57;99173.06;6277361;22;20003;-78
2022/03/29 00:54:12;;;;;;;0.10;0.10;;;;;;;13.32;49.82;99170.94;6276976;22;20060;-79
2022/03/29 00:56:39;;;;;;;0.10;0.10;;;;;;;13.28;50.20;99165.34;6277339;22;20007;-78
2022/03/29 00:59:04;;;;;;;0.05;0.05;;;;;;;13.27;49.88;99159.19;6276761;22;20003;-78
2022/03/29 01:01:30;;;;;;;0.08;0.08;;;;;;;13.25;50.37;99164.03;6277188;22;20043;-78
2022/03/29 01:03:55;;;;;;;0.00;0.00;;;;;;;13.18;50.19;99158.22;6277353;22;20352;-80
2022/03/29 01:06:20;;;;;;;0.10;0.10;;;;;;;13.17;50.36;99156.66;6276730;22;20004;-78
2022/03/29 01:08:46;;;;;;;0.10;0.10;;;;;;;13.08;50.47;99155.69;6277324;22;20013;-78
2022/03/29 01:11:12;;;;;;;0.00;0.00;;;;;;;13.03;50.55;99147.72;6304859;22;20344;-78
2022/03/29 01:13:39;;;;;;;0.00;0.00;;;;;;;13.00;50.68;99146.41;6279017;22;20004;-80
2022/03/29 01:18:50;;;;;;;0.00;0.00;;;;;;;12.97;50.59;99149.66;6306211;22;20462;-76
2022/03/29 01:21:17;;;;;;;0.10;0.10;;;;;;;12.89;51.18;99143.06;6278451;22;20010;-77
2022/03/29 01:23:45;;;;;;;0.00;0.00;;;;;;;12.85;51.12;99144.72;6278751;22;20011;-76
2022/03/29 01:26:12;;;;;;;0.00;0.00;;;;;;;12.81;51.10;99146.38;6306245;22;20018;-76
2022/03/29 01:28:38;;;;;;;0.00;0.00;;;;;;;12.80;51.83;99148.28;6278606;22;20449;-76
2022/03/29 01:31:04;;;;;;;0.00;0.00;;;;;;;12.71;51.42;99135.81;6306087;22;20469;-76
2022/03/29 01:33:31;;;;;;;0.00;0.00;;;;;;;12.65;51.54;99135.06;6306291;22;20078;-76
2022/03/29 01:35:57;;;;;;;0.00;0.00;;;;;;;12.56;51.96;99131.41;6278809;22;20003;-76
2022/03/29 01:38:22;;;;;;;0.00;0.00;;;;;;;12.46;52.31;99125.09;6306005;22;20003;-77
2022/03/29 01:40:47;;;;;;;1.25;0.25;;;;;;;12.37;52.21;99128.69;6278519;22;20146;-78
2022/03/29 01:43:13;;;;;;;0.00;0.00;;;;;;;12.28;52.23;99125.81;6305725;22;20064;-76
2022/03/29 01:45:39;;;;;;;0.00;0.00;;;;;;;12.18;52.23;99121.34;6278644;22;20325;-76
2022/03/29 01:48:04;;;;;;;0.10;0.10;;;;;;;12.17;52.22;99131.28;6305763;22;19999;-77
2022/03/29 01:50:30;;;;;;;0.00;0.00;;;;;;;12.08;52.48;99111.53;6306186;22;20013;-77
2022/03/29 01:52:56;;;;;;;0.00;0.00;;;;;;;12.09;52.48;99118.50;6278734;22;20086;-76
2022/03/29 01:55:22;;;;;;;0.03;0.03;;;;;;;11.99;52.91;99114.03;6278379;22;20010;-78
2022/03/29 01:57:49;;;;;;;0.00;0.00;;;;;;;11.98;53.34;99119.69;6306202;22;20007;-77
2022/03/29 02:00:31;;;;;;;0.10;0.10;;;;;;;11.90;53.71;99117.59;6277654;22;20010;-80
2022/03/29 02:02:58;;;;;;;0.00;0.00;;;;;;;11.78;53.67;99104.56;6278700;22;20025;-76
2022/03/29 02:05:24;;;;;;;0.00;0.00;;;;;;;11.75;53.63;99110.50;6278291;22;20444;-77
2022/03/29 02:07:50;;;;;;;0.00;0.00;;;;;;;11.67;53.58;99106.56;6278596;22;20006;-77
2022/03/29 02:10:21;;;;;;;0.25;0.25;;;;;;;11.59;53.73;99102.59;6278204;22;20009;-78
2022/03/29 02:12:50;;;;;;;0.05;0.05;;;;;;;11.57;54.54;99103.97;6278569;22;20078;-78
2022/03/29 02:15:16;;;;;;;0.00;0.00;;;;;;;11.38;54.69;99099.28;6305056;22;20352;-79
2022/03/29 02:17:44;;;;;;;0.00;0.00;;;;;;;11.37;54.39;99092.34;6278526;22;20408;-76
2022/03/29 02:20:11;;;;;;;0.00;0.00;;;;;;;11.31;54.61;99096.13;6305535;22;20010;-76
2022/03/29 02:22:36;;;;;;;0.52;0.47;;;;;;;11.26;54.85;99090.81;6278308;22;20031;-77
2022/03/29 02:25:02;;;;;;;0.15;0.15;;;;;;;11.25;54.68;99095.34;6305738;22;20074;-76
2022/03/29 02:27:27;;;;;;;0.00;0.00;;;;;;;11.25;54.70;99087.31;6278440;22;20010;-79
2022/03/29 02:29:53;;;;;;;0.00;0.00;;;;;;;11.19;54.69;99096.47;6278121;22;20007;-79
2022/03/29 02:32:18;;;;;;;0.00;0.00;;;;;;;11.11;55.30;99089.84;6277978;22;20352;-78
2022/03/29 02:34:45;;;;;;;0.00;0.00;;;;;;;11.05;55.30;99080.25;6278051;22;20078;-77
2022/03/29 02:37:11;;;;;;;0.10;0.10;;;;;;;11.04;55.22;99092.81;6278135;22;20003;-78
2022/03/29 02:39:37;;;;;;;0.05;0.05;;;;;;;10.99;55.76;99081.38;6278293;22;20509;-78
2022/03/29 02:42:04;;;;;;;0.00;0.00;;;;;;;10.92;55.85;99087.00;6305309;22;20007;-79
2022/03/29 02:44:29;;;;;;;0.00;0.00;;;;;;;10.90;55.68;99089.19;6277917;22;20057;-81
2022/03/29 02:46:56;;;;;;;0.00;0.00;;;;;;;10.92;55.87;99087.00;6278336;22;20011;-79
2022/03/29 02:49:22;;;;;;;0.00;0.00;;;;;;;10.88;56.14;99085.97;6305311;22;20010;-80
2022/03/29 02:51:47;;;;;;;0.00;0.00;;;;;;;10.85;56.30;99081.16;6277981;22;20007;-81
2022/03/29 02:54:14;;;;;;;0.00;0.00;;;;;;;10.81;56.61;99078.25;6277651;22;20011;-78
2022/03/29 02:56:40;;;;;;;0.00;0.00;;;;;;;10.79;56.59;99076.91;6305505;22;20003;-78
2022/03/29 02:59:05;;;;;;;0.00;0.00;;;;;;;10.76;56.69;99069.47;6277672;22;20437;-77
2022/03/29 03:01:31;;;;;;;0.00;0.00;;;;;;;10.75;56.75;99070.53;6277995;22;20007;-78
2022/03/29 03:03:57;;;;;;;0.08;0.08;;;;;;;10.73;57.15;99068.94;6277856;22;20003;-78
2022/03/29 03:06:22;;;;;;;0.00;0.00;;;;;;;10.70;56.68;99064.13;6304844;22;20472;-80
2022/03/29 03:08:48;;;;;;;0.00;0.00;;;;;;;10.70;56.93;99060.66;6277939;22;20098;-82
2022/03/29 03:11:13;;;;;;;0.00;0.00;;;;;;;10.67;56.77;99067.38;6277670;22;20003;-81
2022/03/29 03:13:39;;;;;;;0.00;0.00;;;;;;;10.63;56.75;99062.84;6278073;22;20003;-81
2022/03/29 03:16:04;;;;;;;0.00;0.00;;;;;;;10.62;56.86;99056.69;6277597;22;20081;-81
2022/03/29 03:18:30;;;;;;;0.00;0.00;;;;;;;10.59;56.60;99059.91;6305164;22;20008;-79
2022/03/29 03:20:55;;;;;;;0.00;0.00;;;;;;;10.52;56.75;99068.25;6277956;22;20014;-79
2022/03/29 03:23:21;;;;;;;0.00;0.00;;;;;;;10.48;56.49;99067.19;6277411;22;20015;-78
2022/03/29 03:25:49;;;;;;;0.00;0.00;;;;;;;10.46;56.44;99074.69;6277920;22;20496;-78
2022/03/29 03:28:14;;;;;;;0.00;0.00;;;;;;;10.35;56.22;99063.22;6277296;22;20038;-78
2022/03/29 03:30:40;;;;;;;0.00;0.00;;;;;;;10.33;56.25;99070.69;6277115;22;20090;-79
2022/03/29 03:33:05;;;;;;;0.00;0.00;;;;;;;10.23;56.45;99068.06;6304684;22;20589;-79
2022/03/29 03:35:31;;;;;;;0.28;0.28;;;;;;;10.12;56.48;99071.84;6277121;22;20344;-78
2022/03/29 03:37:56;;;;;;;0.00;0.00;;;;;;;10.02;56.96;99060.13;6304650;22;20128;-76
2022/03/29 03:40:21;;;;;;;0.00;0.00;;;;;;;9.99;56.60;99073.22;6276526;22;20013;-80
2022/03/29 03:42:47;;;;;;;0.00;0.00;;;;;;;9.91;57.24;99067.34;6277574;22;20068;-80
2022/03/29 03:45:12;;;;;;;0.00;0.00;;;;;;;9.86;57.13;99063.88;6277399;22;20007;-79
2022/03/29 03:47:38;;;;;;;0.00;0.00;;;;;;;9.81;57.22;99059.34;6277367;22;20033;-80
2022/03/29 03:50:07;;;;;;;0.00;0.00;;;;;;;9.81;57.27;99067.38;6277300;22;20010;-82
2022/03/29 03:52:32;;;;;;;0.00;0.00;;;;;;;9.80;57.36;99065.75;6277343;22;20454;-79
2022/03/29 03:54:58;;;;;;;0.00;0.00;;;;;;;9.80;57.51;99068.44;6277560;22;19999;-79
2022/03/29 03:57:23;;;;;;;0.00;0.00;;;;;;;9.77;57.39;99056.41;6277438;22;20009;-77
2022/03/29 03:59:50;;;;;;;0.00;0.00;;;;;;;9.73;57.73;99057.25;6277574;22;20007;-79
2022/03/29 04:02:16;;;;;;;0.00;0.00;;;;;;;9.72;57.54;99056.44;6277238;22;20029;-79
2022/03/29 04:04:41;;;;;;;0.00;0.00;;;;;;;9.76;57.50;99056.69;6277035;22;20471;-80
2022/03/29 04:07:07;;;;;;;0.00;0.00;;;;;;;9.72;58.12;99059.09;6277266;22;20141;-79
2022/03/29 04:09:35;;;;;;;0.00;0.00;;;;;;;9.69;58.00;99057.00;6277429;22;20078;-86
2022/03/29 04:12:07;;;;;;;0.00;0.00;;;;;;;9.71;57.97;99062.84;6277610;22;20093;-90
2022/03/29 04:14:32;;;;;;;0.00;0.00;;;;;;;9.69;58.58;99064.19;6277186;22;20456;-79
2022/03/29 04:16:58;;;;;;;0.00;0.00;;;;;;;9.66;58.33;99067.41;6276990;22;20006;-79
2022/03/29 04:19:24;;;;;;;0.00;0.00;;;;;;;9.62;58.77;99069.81;6276471;22;20033;-83
2022/03/29 04:21:49;;;;;;;0.00;0.00;;;;;;;9.61;58.60;99065.53;6277125;22;20003;-78
2022/03/29 04:24:15;;;;;;;0.00;0.00;;;;;;;9.63;58.76;99060.75;6276288;22;20094;-77
2022/03/29 04:26:41;;;;;;;0.00;0.00;;;;;;;9.62;58.59;99064.47;6304227;22;20007;-78
2022/03/29 04:29:07;;;;;;;0.00;0.00;;;;;;;9.64;58.56;99067.66;6277020;22;20003;-78
2022/03/29 04:31:32;;;;;;;0.00;0.00;;;;;;;9.75;58.88;99071.13;6277020;22;20003;-78
2022/03/29 04:33:59;;;;;;;0.00;0.00;;;;;;;9.68;59.13;99074.06;6276898;22;20455;-78
2022/03/29 04:36:25;;;;;;;0.00;0.00;;;;;;;9.69;58.69;99069.53;6276810;22;20381;-78
2022/03/29 04:38:51;;;;;;;0.30;0.30;;;;;;;9.70;58.64;99079.13;6304371;22;20007;-79
2022/03/29 04:41:16;;;;;;;0.00;0.00;;;;;;;9.74;58.96;99078.34;6304336;22;20082;-78
2022/03/29 04:43:42;;;;;;;0.00;0.00;;;;;;;9.77;58.42;99083.13;6277087;22;20006;-79
2022/03/29 04:46:08;;;;;;;0.00;0.00;;;;;;;9.82;58.35;99076.19;6278282;22;20057;-76
2022/03/29 04:48:34;;;;;;;0.00;0.00;;;;;;;9.88;58.17;99077.78;6278990;22;20007;-79
2022/03/29 04:50:59;;;;;;;0.00;0.00;;;;;;;9.94;58.73;99079.38;6279249;22;20006;-79
2022/03/29 04:53:24;;;;;;;0.00;0.00;;;;;;;10.01;57.89;99082.56;6278888;22;20000;-79
2022/03/29 04:55:50;;;;;;;0.17;0.17;;;;;;;10.13;57.31;99082.28;6278978;22;20014;-79
2022/03/29 04:58:16;;;;;;;0.00;0.00;;;;;;;10.29;57.86;99080.34;6278890;22;19999;-78
2022/03/29 05:00:42;;;;;;;0.00;0.00;;;;;;;10.43;57.82;99088.59;6279220;22;20094;-78
2022/03/29 05:03:08;;;;;;;0.00;0.00;;;;;;;10.56;57.46;99087.22;6278949;22;19999;-76
2022/03/29 05:05:33;;;;;;;0.22;0.22;;;;;;;10.78;56.77;99086.84;6279055;22;20549;-79
2022/03/29 05:07:59;;;;;;;0.00;0.00;;;;;;;10.97;56.65;99083.50;6278961;22;20082;-79
2022/03/29 05:10:24;;;;;;;0.00;0.00;;;;;;;11.20;55.42;99076.66;6306136;22;20010;-79
2022/03/29 05:12:51;;;;;;;0.20;0.20;;;;;;;11.46;55.36;99065.75;6279031;22;20011;-78
2022/03/29 05:15:20;;;;;;;0.52;0.32;;;;;;;11.69;54.37;99067.69;6278422;22;20004;-79
2022/03/29 05:17:47;;;;;;;0.00;0.00;;;;;;;11.99;53.67;99076.53;6306449;22;20007;-78
2022/03/29 05:20:14;;;;;;;0.00;0.00;;;;;;;12.22;52.99;99078.69;6278834;22;20106;-78
2022/03/29 05:22:51;;;;;;;0.10;0.10;;;;;;;12.47;52.79;99073.03;6279028;22;20035;-78
2022/03/29 05:25:19;;;;;;;0.03;0.03;;;;;;;12.78;51.98;99078.00;6278729;22;20256;-78
2022/03/29 05:27:46;;;;;;;0.00;0.00;;;;;;;13.05;50.64;99081.91;6278927;22;20010;-79
2022/03/29 05:30:13;;;;;;;0.00;0.00;;;;;;;13.32;49.55;99068.88;6278537;22;20011;-79
2022/03/29 05:32:39;;;;;;;0.10;0.10;;;;;;;13.59;48.41;99063.63;6279001;22;20006;-79
2022/03/29 05:35:07;;;;;;;0.00;0.00;;;;;;;13.93;47.73;99069.75;6305848;22;19995;-78
2022/03/29 05:37:33;;;;;;;;;;;;;;;14.25;47.73;99071.53;6279363;22;20448;-79
2022/03/29 05:39:58;;;;;;;0.00;0.00;;;;;;;14.51;48.19;99072.91;6278752;22;19903;-78
2022/03/29 05:42:24;;;;;;;0.05;0.05;;;;;;;14.84;46.65;99075.47;6278521;22;19999;-78
2022/03/29 05:44:50;;;;;;;0.00;0.00;;;;;;;15.07;44.72;99073.59;6278780;22;20010;-78
2022/03/29 05:49:59;;;;;;;0.08;0.08;;;;;;;15.53;42.90;99069.78;6305784;22;20064;-79
2022/03/29 05:52:25;;;;;;;0.00;0.00;;;;;;;15.71;41.95;99075.31;6278574;22;20411;-79
2022/03/29 05:54:51;;;;;;;0.03;0.03;;;;;;;15.82;41.70;99065.84;6305990;22;20014;-78
2022/03/29 05:57:17;;;;;;;0.10;0.10;;;;;;;15.87;41.32;99064.94;6278073;22;20010;-78
2022/03/29 05:59:45;;;;;;;0.10;0.10;;;;;;;15.98;41.10;99062.75;6306119;22;20005;-78
2022/03/29 06:02:11;;;;;;;0.00;0.00;;;;;;;15.99;40.70;99065.13;6278393;22;20046;-78
2022/03/29 06:04:37;;;;;;;0.03;0.03;;;;;;;16.05;40.89;99065.00;6278435;22;20007;-78
2022/03/29 06:07:10;;;;;;;0.20;0.20;;;;;;;16.13;40.67;99066.94;6278507;22;20003;-79
2022/03/29 06:09:35;;;;;;;0.10;0.10;;;;;;;16.25;40.25;99056.34;6278466;22;20010;-78
2022/03/29 06:12:02;;;;;;;0.10;0.10;;;;;;;16.38;40.05;99068.13;6278596;22;20348;-78
2022/03/29 06:14:28;;;;;;;0.00;0.00;;;;;;;16.44;40.37;99061.47;6305556;22;20013;-78
2022/03/29 06:16:55;;;;;;;0.10;0.10;;;;;;;16.57;40.28;99054.31;6305956;22;19999;-79
2022/03/29 06:19:20;;;;;;;0.10;0.10;;;;;;;16.73;39.95;99061.97;6278335;22;20017;-78
2022/03/29 06:21:46;;;;;;;0.00;0.00;;;;;;;16.88;39.62;99056.13;6305924;22;20074;-78
2022/03/29 06:24:11;;;;;;;0.10;0.10;;;;;;;17.03;39.69;99060.28;6277662;22;20015;-78
2022/03/29 06:26:39;;;;;;;0.08;0.08;;;;;;;17.11;39.19;99061.38;6277909;22;19999;-78
2022/03/29 06:29:08;;;;;;;0.10;0.10;;;;;;;17.17;39.44;99054.69;6278138;22;20013;-77
2022/03/29 06:31:34;;;;;;;0.10;0.10;;;;;;;17.23;39.34;99061.50;6277997;22;20080;-77
2022/03/29 06:34:00;;;;;;;0.10;0.10;;;;;;;17.20;39.55;99037.03;6278129;22;20007;-77
2022/03/29 06:36:26;;;;;;;0.00;0.00;;;;;;;17.35;39.97;99043.88;6277795;22;20003;-77
2022/03/29 06:38:53;;;;;;;0.20;0.20;;;;;;;17.42;39.65;99044.94;6277957;22;20000;-81
2022/03/29 06:41:19;;;;;;;0.10;0.10;;;;;;;17.51;39.87;99039.53;6305199;22;20007;-78
2022/03/29 06:43:44;;;;;;;0.00;0.00;;;;;;;17.61;39.62;99038.38;6278168;22;20032;-78
2022/03/29 06:46:10;;;;;;;0.00;0.00;;;;;;;17.64;40.10;99042.34;6277453;22;20007;-79
2022/03/29 06:48:36;;;;;;;0.10;0.10;;;;;;;17.74;39.65;99042.00;6305449;22;20010;-79
2022/03/29 06:51:01;;;;;;;0.70;0.70;;;;;;;17.81;40.00;99042.31;6277917;22;20086;-78
2022/03/29 06:53:27;;;;;;;0.17;0.15;;;;;;;17.91;39.95;99038.44;6277834;22;19999;-79
2022/03/29 06:55:52;;;;;;;0.10;0.10;;;;;;;17.99;39.66;99042.25;6277950;22;20026;-80
2022/03/29 06:58:19;;;;;;;0.15;0.15;;;;;;;18.01;39.27;99031.91;6277744;22;20456;-79
2022/03/29 07:00:44;;;;;;;0.10;0.10;;;;;;;18.03;39.64;99033.16;6277913;22;20003;-79
2022/03/29 07:03:10;;;;;;;0.40;0.40;;;;;;;18.01;39.75;99021.84;6304959;22;20003;-79
2022/03/29 07:05:38;;;;;;;0.47;0.47;;;;;;;17.99;39.61;99026.00;6305326;22;20030;-79
2022/03/29 07:08:05;;;;;;;0.75;0.75;;;;;;;18.01;39.95;99015.66;6277603;22;20003;-79
2022/03/29 07:13:14;;;;;;;0.10;0.10;;;;;;;18.20;39.37;99018.75;6304478;22;20014;-79
2022/03/29 07:15:40;;;;;;;0.20;0.20;;;;;;;18.24;39.53;99010.75;6305107;22;20010;-79
2022/03/29 07:18:06;;;;;;;0.10;0.10;;;;;;;18.35;38.55;99013.88;6277678;22;20003;-79
2022/03/29 07:20:32;;;;;;;0.30;0.30;;;;;;;18.42;38.21;99016.06;6277526;22;20130;-79
2022/03/29 07:22:57;;;;;;;0.00;0.00;;;;;;;18.51;37.81;99011.38;6277584;22;20409;-79
2022/03/29 07:25:25;;;;;;;0.10;0.10;;;;;;;18.62;37.94;99009.06;6277567;22;20011;-79
2022/03/29 07:27:52;;;;;;;0.80;0.43;;;;;;;18.74;37.46;99009.13;6277709;22;20034;-79
2022/03/29 07:30:17;;;;;;;0.10;0.10;;;;;;;18.80;36.45;99005.09;6277458;22;20344;-79
2022/03/29 07:32:48;;;;;;;0.10;0.10;;;;;;;18.88;37.20;99004.22;6277586;22;20003;-79
2022/03/29 07:35:16;;;;;;;0.10;0.10;;;;;;;18.96;36.86;98997.16;6277221;22;20015;-79
2022/03/29 07:37:43;;;;;;;0.20;0.20;;;;;;;19.08;36.08;99001.03;6277468;22;20086;-79
2022/03/29 07:40:10;;;;;;;0.10;0.10;;;;;;;19.10;36.23;99004.22;6277577;22;20400;-78
2022/03/29 07:42:36;;;;;;;0.10;0.10;;;;;;;19.12;35.67;98999.25;6277085;22;20003;-79
2022/03/29 07:45:04;;;;;;;0.00;0.00;;;;;;;19.19;35.89;98992.16;6277520;22;20011;-79
2022/03/29 07:47:30;;;;;;;0.30;0.30;;;;;;;19.30;34.97;98995.25;6277268;22;20015;-79
2022/03/29 07:49:56;;;;;;;0.15;0.15;;;;;;;19.33;35.38;98985.63;6277369;22;20034;-79
2022/03/29 07:52:21;;;;;;;0.03;0.03;;;;;;;19.40;35.12;98979.69;6277023;22;19999;-79
2022/03/29 07:54:47;;;;;;;0.10;0.10;;;;;;;19.48;35.39;98984.19;6277014;22;20008;-79
2022/03/29 07:57:13;;;;;;;0.00;0.00;;;;;;;19.50;34.73;98977.28;6277290;22;20011;-79
2022/03/29 07:59:38;;;;;;;0.17;0.17;;;;;;;19.55;35.15;98973.56;6304437;22;20007;-79
2022/03/29 08:02:05;;;;;;;0.10;0.10;;;;;;;19.58;35.30;98966.69;6277026;22;20048;-79
2022/03/29 08:04:31;;;;;;;0.10;0.10;;;;;;;19.58;34.59;98962.06;6304204;22;20057;-79
2022/03/29 08:06:57;;;;;;;0.80;0.77;;;;;;;19.66;34.31;98957.66;6304295;22;20003;-79
2022/03/29 08:09:22;;;;;;;0.00;0.00;;;;;;;19.74;34.18;98961.38;6276471;22;20010;-79
2022/03/29 08:11:48;;;;;;;0.10;0.10;;;;;;;19.81;34.01;98950.75;6277023;22;20011;-79
2022/03/29 08:14:14;;;;;;;0.00;0.00;;;;;;;19.83;33.82;98952.03;6277076;22;20340;-79
2022/03/29 08:16:41;;;;;;;0.10;0.10;;;;;;;19.93;33.60;98955.41;6277355;22;20010;-79
2022/03/29 08:19:07;;;;;;;0.20;0.20;;;;;;;19.95;32.73;98953.94;6277251;22;20011;-79
2022/03/29 08:24:27;;;;;;;0.17;0.17;;;;;;;20.00;31.70;98953.69;6280450;22;20058;-79
2022/03/29 08:26:54;;;;;;;0.10;0.10;;;;;;;20.06;32.02;98956.97;6280357;22;20004;-79
2022/03/29 08:29:21;;;;;;;0.70;0.70;;;;;;;19.98;31.38;98941.59;6280028;22;20003;-79
2022/03/29 08:31:49;;;;;;;0.70;0.63;;;;;;;20.00;31.19;98940.13;6280411;22;20010;-79
2022/03/29 08:34:16;;;;;;;0.20;0.20;;;;;;;20.04;31.37;98932.09;6280313;22;20418;-79
2022/03/29 08:36:42;;;;;;;0.10;0.10;;;;;;;20.07;30.30;98936.06;6280469;22;20007;-79
2022/03/29 08:39:09;;;;;;;0.47;0.47;;;;;;;20.07;30.99;98927.94;6307830;22;20006;-79
2022/03/29 08:41:37;;;;;;;0.08;0.08;;;;;;;20.15;30.03;98922.34;6280061;22;20078;-79
2022/03/29 08:44:04;;;;;;;0.00;0.00;;;;;;;20.18;29.48;98925.50;6307822;22;20003;-79
2022/03/29 08:46:36;;;;;;;0.20;0.20;;;;;;;20.22;29.80;98920.97;6280022;22;20336;-79
2022/03/29 08:49:03;;;;;;;0.22;0.22;;;;;;;20.22;29.60;98918.28;6307546;22;20065;-80
2022/03/29 08:51:29;;;;;;;0.10;0.10;;;;;;;20.29;29.71;98907.63;6280438;22;20007;-79
2022/03/29 08:53:55;;;;;;;0.20;0.20;;;;;;;20.33;28.61;98911.22;6280550;22;20234;-80
2022/03/29 08:56:20;;;;;;;0.00;0.00;;;;;;;20.31;28.61;98908.84;6280186;22;20036;-78
2022/03/29 08:58:46;;;;;;;0.22;0.22;;;;;;;20.39;29.03;98912.53;6307987;22;20007;-78
2022/03/29 09:01:12;;;;;;;0.00;0.00;;;;;;;20.39;28.72;98906.34;6280482;22;20015;-79
2022/03/29 09:03:37;;;;;;;0.10;0.10;;;;;;;20.48;28.26;98910.50;6280007;22;20385;-79
2022/03/29 09:06:09;;;;;;;0.05;0.05;;;;;;;20.48;28.09;98905.06;6280303;22;20317;-79
2022/03/29 09:08:43;;;;;;;0.10;0.10;;;;;;;20.54;27.49;98899.38;6307548;22;20069;-79
2022/03/29 09:11:08;;;;;;;0.10;0.10;;;;;;;20.58;27.70;98900.25;6280274;22;20007;-79
2022/03/29 09:13:34;;;;;;;0.10;0.10;;;;;;;20.70;27.23;98891.25;6307621;22;20023;-79
2022/03/29 09:16:02;;;;;;;0.10;0.10;;;;;;;20.79;26.52;98886.50;6280264;22;20531;-81
2022/03/29 09:18:29;;;;;;;0.00;0.00;;;;;;;20.87;26.61;98882.81;6280095;22;20007;-79
2022/03/29 09:21:07;;;;;;;0.10;0.10;;;;;;;20.91;26.68;98877.44;6280436;22;20337;-79
2022/03/29 09:23:34;;;;;;;0.22;0.22;;;;;;;20.92;26.28;98877.13;6279707;22;20156;-79
2022/03/29 09:26:00;;;;;;;0.73;0.73;;;;;;;20.95;26.67;98867.47;6280468;22;20034;-79
2022/03/29 09:28:38;;;;;;;0.30;0.30;;;;;;;20.93;26.12;98858.88;6280303;22;20003;-80
2022/03/29 09:31:25;;;;;;;0.40;0.40;;;;;;;20.93;26.20;98861.59;6279962;22;20092;-80
2022/03/29 09:33:51;;;;;;;0.00;0.00;;;;;;;20.97;26.62;98850.81;6278729;22;20013;-79
2022/03/29 09:36:20;;;;;;;0.10;0.10;;;;;;;21.02;26.54;98845.09;6278444;22;20458;-79
2022/03/29 09:38:52;;;;;;;0.10;0.10;;;;;;;21.06;27.11;98838.63;6278821;22;20007;-81
2022/03/29 09:41:26;;;;;;;4.03;0.90;;;;;;;21.13;26.62;98845.38;6278766;22;20436;-80
2022/03/29 09:44:03;;;;;;;0.52;0.22;;;;;;;21.13;25.47;98834.50;6306040;22;19999;-80
2022/03/29 09:46:51;;;;;;;0.13;0.13;;;;;;;21.04;25.64;98831.97;6278537;22;20003;-80
2022/03/29 09:49:16;;;;;;;0.10;0.10;;;;;;;20.99;25.66;98822.13;6278235;22;20007;-81
2022/03/29 09:51:42;;;;;;;0.10;0.10;;;;;;;20.98;25.89;98823.28;6278386;22;20452;-80
2022/03/29 09:54:08;;;;;;;0.10;0.10;;;;;;;20.92;25.86;98820.03;6278654;22;20395;-79
2022/03/29 09:56:34;;;;;;;0.10;0.10;;;;;;;20.85;25.95;98805.47;6278135;22;20007;-79
2022/03/29 09:59:09;;;;;;;0.10;0.10;;;;;;;20.85;25.73;98805.47;6278285;22;20007;-79
2022/03/29 10:01:53;;;;;;;0.63;0.63;;;;;;;20.82;25.96;98808.91;6278336;22;20038;-80
2022/03/29 10:04:20;;;;;;;0.10;0.10;;;;;;;20.77;26.18;98796.38;6278302;22;20090;-79
2022/03/29 10:06:48;;;;;;;1.05;0.95;;;;;;;20.68;25.88;98795.69;6278046;22;20425;-81
2022/03/29 10:09:28;;;;;;;0.00;0.00;;;;;;;20.59;26.10;98790.44;6278464;22;20003;-81
2022/03/29 10:11:59;;;;;;;0.00;0.00;;;;;;;20.54;26.23;98777.13;6278539;22;20460;-81
2022/03/29 10:14:27;;;;;;;0.10;0.10;;;;;;;20.55;26.71;98774.06;6278003;22;20011;-81
2022/03/29 10:16:56;;;;;;;0.38;0.38;;;;;;;20.56;26.94;98766.72;6278432;22;20015;-81
2022/03/29 10:19:22;;;;;;;5.60;0.47;;;;;;;20.60;27.10;98752.09;6278442;22;20332;-81
2022/03/29 10:21:48;;;;;;;0.50;0.50;;;;;;;20.71;28.36;98752.31;6278405;22;20013;-80
2022/03/29 10:24:15;;;;;;;0.10;0.10;;;;;;;20.79;27.98;98754.09;6277912;22;20015;-80
2022/03/29 10:26:43;;;;;;;0.10;0.10;;;;;;;20.89;26.91;98749.28;6277614;22;20011;-79
2022/03/29 10:29:10;;;;;;;0.20;0.20;;;;;;;20.97;26.87;98742.88;6277277;22;20028;-81
2022/03/29 10:31:48;;;;;;;0.17;0.17;;;;;;;21.08;27.03;98738.47;6277595;22;20003;-81
2022/03/29 10:34:13;;;;;;;;;;;;;;;21.17;26.75;98732.06;6278719;22;20014;-81
2022/03/29 10:37:03;;;;;;;0.35;0.35;;;;;;;21.12;26.26;98730.41;6277734;22;19907;-81
2022/03/29 10:39:45;;;;;;;1.02;0.43;;;;;;;21.00;26.53;98717.69;6277904;22;20141;-81
2022/03/29 10:42:27;;;;;;;0.75;0.75;;;;;;;20.98;27.11;98721.91;6278312;22;20014;-81
2022/03/29 10:45:18;;;;;;;0.10;0.10;;;;;;;20.90;27.82;98708.16;6278164;22;20329;-82
2022/03/29 10:47:48;;;;;;;0.10;0.10;;;;;;;20.95;27.85;98710.59;6277833;22;20019;-80
2022/03/29 10:50:15;;;;;;;0.68;0.68;;;;;;;20.98;27.73;98709.09;6278051;22;20011;-81
2022/03/29 10:52:42;;;;;;;0.40;0.40;;;;;;;21.08;27.76;98703.13;6277798;22;20407;-78
2022/03/29 10:55:25;;;;;;;0.20;0.20;;;;;;;21.16;28.22;98695.91;6277989;22;20344;-80
2022/03/29 10:58:12;;;;;;;0.30;0.30;;;;;;;21.28;28.66;98678.69;6278083;22;20011;-79
2022/03/29 11:00:43;;;;;;;0.17;0.17;;;;;;;21.39;29.10;98685.13;6305157;22;20030;-80
2022/03/29 11:03:11;;;;;;;0.40;0.40;;;;;;;21.47;29.08;98671.66;6277890;22;20078;-80
2022/03/29 11:06:05;;;;;;;0.00;0.00;;;;;;;21.53;28.83;98667.50;6277627;22;20094;-80
2022/03/29 11:08:32;;;;;;;0.60;0.60;;;;;;;21.58;29.03;98668.06;6304726;22;20038;-79
2022/03/29 11:11:01;;;;;;;0.10;0.10;;;;;;;21.70;28.52;98669.03;6277762;22;19999;-80
2022/03/29 11:13:28;;;;;;;1.02;0.50;;;;;;;21.62;28.34;98664.59;6277510;22;20006;-80
2022/03/29 11:15:57;;;;;;;2.90;0.68;;;;;;;21.59;28.85;98656.03;6277868;22;20007;-80
2022/03/29 11:18:32;;;;;;;0.50;0.50;;;;;;;21.63;28.73;98674.34;6277707;22;20004;-80
2022/03/29 11:21:03;;;;;;;0.40;0.40;;;;;;;21.57;28.27;98661.03;6305213;22;19999;-80
2022/03/29 11:23:45;;;;;;;0.10;0.10;;;;;;;21.53;28.49;98632.16;6276621;22;20052;-81
2022/03/29 11:26:13;;;;;;;0.75;0.65;;;;;;;21.56;28.81;98629.53;6277745;22;20560;-80
2022/03/29 11:28:54;;;;;;;0.57;0.57;;;;;;;21.58;28.37;98619.06;6277504;22;20011;-80
2022/03/29 11:31:22;;;;;;;0.47;0.43;;;;;;;21.60;28.29;98618.72;6277673;22;20076;-80
2022/03/29 11:33:52;;;;;;;0.88;0.80;;;;;;;21.60;28.20;98621.44;6305036;22;20041;-79
2022/03/29 11:36:19;;;;;;;1.15;0.43;;;;;;;21.57;28.15;98620.22;6277227;22;20072;-80
2022/03/29 11:38:44;;;;;;;0.25;0.25;;;;;;;21.54;28.31;98603.78;6276251;22;20015;-79
2022/03/29 11:41:25;;;;;;;0.00;0.00;;;;;;;21.49;28.38;98610.31;6277518;22;20046;-80
2022/03/29 11:43:59;;;;;;;2.40;0.85;;;;;;;21.52;28.43;98595.19;6305218;22;20056;-79
2022/03/29 11:46:42;;;;;;;0.00;0.00;;;;;;;21.52;28.60;98587.84;6277259;22;20003;-80
2022/03/29 11:49:07;;;;;;;0.20;0.20;;;;;;;21.61;28.42;98590.34;6277637;22;20395;-81
2022/03/29 11:51:33;;;;;;;0.57;0.57;;;;;;;21.54;28.54;98580.09;6277031;22;20011;-78
2022/03/29 11:53:59;;;;;;;0.05;0.05;;;;;;;21.53;28.27;98591.34;6277132;22;20003;-78